Time;durP1;ratioP1;P1;durP2;ratioP2;P2;SDS_P1;SDS_P2;PMS_P1;PMS_P2;Temp;Humidity;BMP_temperature;BMP_pressure;BME280_temperature;BME280_humidity;BME280_pressure;Samples;Min_cycle;Max_cycle;Signal;HPM_P1;HPM_P2
2021/04/28 00:02:14;;;;;;;3.60;1.63;;;;;;;;;;5037626;28;20475;-71
2021/04/28 00:04:41;;;;;;;4.77;2.20;;;;;;;;;;5039095;28;20494;-70
2021/04/28 00:07:09;;;;;;;2.60;1.70;;;;;;;;;;5038694;28;20466;-71
2021/04/28 00:09:36;;;;;;;3.07;1.37;;;;;;;;;;5039712;28;20486;-71
2021/04/28 00:12:05;;;;;;;2.93;1.50;;;;;;;;;;5040280;28;20466;-72
2021/04/28 00:14:32;;;;;;;5.93;1.60;;;;;;;;;;5038760;28;20473;-70
2021/04/28 00:17:03;;;;;;;3.70;2.50;;;;;;;;;;5039703;28;20474;-71
2021/04/28 00:19:33;;;;;;;7.87;2.37;;;;;;;;;;5038806;28;20514;-70
2021/04/28 00:22:02;;;;;;;2.67;1.23;;;;;;;;;;5040824;28;20748;-72
2021/04/28 00:24:29;;;;;;;5.27;1.83;;;;;;;;;;5038449;28;20618;-71
2021/04/28 00:27:03;;;;;;;3.10;1.90;;;;;;;;;;5039365;28;20489;-71
2021/04/28 00:29:38;;;;;;;4.03;1.67;;;;;;;;;;5038058;28;20459;-70
2021/04/28 00:32:08;;;;;;;3.10;1.80;;;;;;;;;;5037941;28;20465;-71
2021/04/28 00:34:35;;;;;;;3.37;1.70;;;;;;;;;;5037722;28;20467;-69
2021/04/28 00:37:05;;;;;;;2.80;1.40;;;;;;;;;;5037406;28;20459;-72
2021/04/28 00:39:32;;;;;;;4.23;1.50;;;;;;;;;;5037806;28;20703;-71
2021/04/28 00:41:59;;;;;;;3.47;1.80;;;;;;;;;;5039046;28;20462;-71
2021/04/28 00:44:26;;;;;;;5.90;1.77;;;;;;;;;;5038682;28;20482;-71
2021/04/28 00:46:55;;;;;;;3.17;2.00;;;;;;;;;;5038643;28;20459;-71
2021/04/28 00:49:22;;;;;;;2.43;1.57;;;;;;;;;;5038742;28;20473;-71
2021/04/28 00:51:49;;;;;;;3.70;1.80;;;;;;;;;;5037572;28;20550;-71
2021/04/28 00:54:19;;;;;;;3.77;1.90;;;;;;;;;;5038572;28;20536;-71
2021/04/28 00:56:46;;;;;;;3.70;1.80;;;;;;;;;;5036802;28;20494;-71
2021/04/28 00:59:14;;;;;;;4.67;1.50;;;;;;;;;;5037284;28;20463;-70
2021/04/28 01:01:41;;;;;;;3.90;1.83;;;;;;;;;;5037170;28;20743;-70
2021/04/28 01:04:12;;;;;;;4.20;1.40;;;;;;;;;;5037116;28;20509;-71
2021/04/28 01:06:39;;;;;;;3.37;1.43;;;;;;;;;;5037411;28;20550;-71
2021/04/28 01:09:07;;;;;;;3.13;1.53;;;;;;;;;;5037151;28;20762;-72
2021/04/28 01:11:42;;;;;;;3.00;1.53;;;;;;;;;;5036991;28;20723;-71
2021/04/28 01:14:09;;;;;;;3.13;1.57;;;;;;;;;;5036339;28;20516;-71
2021/04/28 01:16:39;;;;;;;3.40;1.63;;;;;;;;;;5036547;28;20471;-70
2021/04/28 01:19:07;;;;;;;4.20;1.90;;;;;;;;;;5037328;28;20493;-70
2021/04/28 01:21:36;;;;;;;5.30;2.00;;;;;;;;;;5036627;28;20546;-71
2021/04/28 01:24:05;;;;;;;2.90;1.80;;;;;;;;;;5037324;28;20577;-70
2021/04/28 01:26:32;;;;;;;2.80;1.43;;;;;;;;;;5036742;28;20462;-70
2021/04/28 01:29:00;;;;;;;5.73;1.70;;;;;;;;;;5036461;28;20569;-72
2021/04/28 01:31:29;;;;;;;4.00;1.70;;;;;;;;;;5036456;28;20462;-71
2021/04/28 01:33:58;;;;;;;3.43;1.83;;;;;;;;;;5036779;28;20463;-71
2021/04/28 01:36:28;;;;;;;3.43;1.60;;;;;;;;;;5036173;28;21088;-70
2021/04/28 01:38:58;;;;;;;4.03;1.47;;;;;;;;;;5036721;28;20462;-72
2021/04/28 01:41:27;;;;;;;3.83;1.47;;;;;;;;;;5036627;28;20508;-74
2021/04/28 01:43:54;;;;;;;3.93;1.93;;;;;;;;;;5036527;28;20729;-71
2021/04/28 01:46:29;;;;;;;3.27;1.33;;;;;;;;;;5036736;28;20484;-70
2021/04/28 01:48:56;;;;;;;4.10;1.93;;;;;;;;;;5036207;28;20458;-71
2021/04/28 01:51:23;;;;;;;4.27;1.80;;;;;;;;;;5036096;28;20462;-70
2021/04/28 01:53:51;;;;;;;5.00;2.10;;;;;;;;;;5036789;28;20454;-71
2021/04/28 01:56:18;;;;;;;7.80;2.30;;;;;;;;;;5037157;28;20867;-70
2021/04/28 01:58:47;;;;;;;3.60;1.50;;;;;;;;;;5037203;28;20477;-71
2021/04/28 02:01:14;;;;;;;6.03;1.47;;;;;;;;;;5036987;28;20860;-70
2021/04/28 02:03:41;;;;;;;4.13;2.10;;;;;;;;;;5036821;28;20466;-70
2021/04/28 02:06:09;;;;;;;4.50;1.80;;;;;;;;;;5037045;28;20477;-70
2021/04/28 02:08:36;;;;;;;3.70;1.37;;;;;;;;;;5036974;28;20743;-70
2021/04/28 02:11:04;;;;;;;4.93;1.70;;;;;;;;;;5036815;28;20461;-70
2021/04/28 02:13:33;;;;;;;4.00;1.67;;;;;;;;;;5036551;28;20466;-70
2021/04/28 02:16:02;;;;;;;4.40;1.90;;;;;;;;;;5037088;28;20459;-71
2021/04/28 02:18:30;;;;;;;5.03;2.20;;;;;;;;;;5036294;28;20859;-70
2021/04/28 02:20:57;;;;;;;4.23;1.93;;;;;;;;;;5016808;28;20463;-70
2021/04/28 02:23:25;;;;;;;3.73;1.57;;;;;;;;;;5030039;28;20528;-70
2021/04/28 02:25:59;;;;;;;3.90;1.80;;;;;;;;;;5037964;28;20463;-72
2021/04/28 02:28:27;;;;;;;5.37;2.20;;;;;;;;;;5040185;28;20462;-70
2021/04/28 02:30:54;;;;;;;5.27;2.67;;;;;;;;;;5039477;28;20462;-71
2021/04/28 02:33:22;;;;;;;4.43;1.90;;;;;;;;;;5039116;28;20544;-70
2021/04/28 02:35:50;;;;;;;4.73;2.37;;;;;;;;;;5040032;28;20903;-70
2021/04/28 02:38:18;;;;;;;4.17;1.60;;;;;;;;;;5039624;28;20481;-71
2021/04/28 02:40:46;;;;;;;5.23;1.57;;;;;;;;;;5040516;28;20474;-71
2021/04/28 02:43:18;;;;;;;4.10;1.60;;;;;;;;;;5039435;28;20466;-70
2021/04/28 02:45:46;;;;;;;4.10;1.50;;;;;;;;;;5039900;28;20494;-72
2021/04/28 02:48:14;;;;;;;6.27;2.30;;;;;;;;;;5041117;28;20465;-70
2021/04/28 02:50:42;;;;;;;5.03;2.40;;;;;;;;;;5039746;28;20482;-70
2021/04/28 02:53:11;;;;;;;10.17;2.70;;;;;;;;;;5040890;28;20470;-71
2021/04/28 02:55:38;;;;;;;4.43;2.03;;;;;;;;;;5039373;28;20467;-71
2021/04/28 02:58:06;;;;;;;4.57;1.63;;;;;;;;;;5039686;28;20466;-70
2021/04/28 03:00:34;;;;;;;4.70;2.13;;;;;;;;;;5039410;28;20475;-71
2021/04/28 03:03:01;;;;;;;6.03;1.83;;;;;;;;;;5039735;28;21005;-71
2021/04/28 03:05:30;;;;;;;3.67;1.50;;;;;;;;;;5039311;28;20494;-71
2021/04/28 03:08:00;;;;;;;5.43;2.60;;;;;;;;;;5038904;28;20455;-71
2021/04/28 03:10:27;;;;;;;3.97;2.10;;;;;;;;;;5029604;28;20465;-71
2021/04/28 03:12:54;;;;;;;4.60;2.60;;;;;;;;;;5037624;28;20724;-71
2021/04/28 03:15:23;;;;;;;6.40;1.73;;;;;;;;;;5038795;28;20467;-69
2021/04/28 03:17:53;;;;;;;8.70;3.13;;;;;;;;;;5036311;28;21024;-70
2021/04/28 03:20:24;;;;;;;3.90;1.90;;;;;;;;;;5036414;28;20566;-70
2021/04/28 03:22:56;;;;;;;4.03;1.93;;;;;;;;;;5036302;28;20467;-71
2021/04/28 03:25:25;;;;;;;11.40;3.10;;;;;;;;;;5038186;28;20510;-70
2021/04/28 03:27:55;;;;;;;6.33;2.07;;;;;;;;;;5038166;28;20786;-70
2021/04/28 03:30:26;;;;;;;4.50;2.17;;;;;;;;;;5037451;28;20469;-71
2021/04/28 03:33:00;;;;;;;4.13;1.50;;;;;;;;;;5018980;28;20455;-71
2021/04/28 03:35:27;;;;;;;5.67;1.83;;;;;;;;;;5030451;28;20481;-70
2021/04/28 03:37:54;;;;;;;4.73;1.67;;;;;;;;;;5037859;28;20454;-71
2021/04/28 03:40:22;;;;;;;6.77;1.90;;;;;;;;;;5038550;28;20478;-71
2021/04/28 03:42:52;;;;;;;6.10;2.00;;;;;;;;;;5038116;28;20442;-70
2021/04/28 03:45:31;;;;;;;4.93;1.93;;;;;;;;;;5037166;28;20534;-70
2021/04/28 03:48:01;;;;;;;3.60;1.67;;;;;;;;;;5037985;28;20451;-71
2021/04/28 03:50:29;;;;;;;4.53;1.70;;;;;;;;;;5038091;28;20524;-71
2021/04/28 03:52:56;;;;;;;7.00;1.93;;;;;;;;;;5038734;28;20466;-71
2021/04/28 03:55:24;;;;;;;6.33;2.77;;;;;;;;;;5036786;28;20543;-71
2021/04/28 03:57:53;;;;;;;3.53;1.57;;;;;;;;;;5025908;28;20871;-70
2021/04/28 04:03:23;;;;;;;5.40;1.80;;;;;;;;;;5023529;28;20896;-71
2021/04/28 04:05:50;;;;;;;5.40;2.27;;;;;;;;;;5039571;28;20494;-72
2021/04/28 04:08:18;;;;;;;5.43;2.37;;;;;;;;;;5039330;28;20455;-70
2021/04/28 04:10:46;;;;;;;6.27;2.07;;;;;;;;;;5038208;28;20462;-71
2021/04/28 04:13:16;;;;;;;5.10;2.17;;;;;;;;;;5037751;28;20484;-71
2021/04/28 04:16:12;;;;;;;5.00;2.27;;;;;;;;;;5037208;28;20455;-72
2021/04/28 04:18:39;;;;;;;3.93;2.13;;;;;;;;;;5037169;28;20470;-70
2021/04/28 04:21:06;;;;;;;3.80;2.10;;;;;;;;;;5036879;28;20740;-70
2021/04/28 04:23:54;;;;;;;4.37;2.30;;;;;;;;;;5017446;28;20471;-71
2021/04/28 04:26:23;;;;;;;4.30;1.83;;;;;;;;;;5027337;28;20461;-71
2021/04/28 04:28:51;;;;;;;8.50;2.23;;;;;;;;;;5037152;28;20465;-71
2021/04/28 04:31:20;;;;;;;4.53;2.20;;;;;;;;;;5036013;28;20756;-72
2021/04/28 04:33:47;;;;;;;6.77;2.43;;;;;;;;;;5029157;28;20475;-70
2021/04/28 04:36:14;;;;;;;4.70;1.83;;;;;;;;;;5018083;28;20471;-70
2021/04/28 04:38:42;;;;;;;5.67;2.47;;;;;;;;;;5017665;28;20506;-70
2021/04/28 04:41:09;;;;;;;5.10;2.40;;;;;;;;;;5033768;28;20467;-71
2021/04/28 04:43:36;;;;;;;10.10;2.50;;;;;;;;;;5036737;28;21088;-70
2021/04/28 04:46:04;;;;;;;4.50;2.00;;;;;;;;;;5036541;28;20563;-70
2021/04/28 04:48:32;;;;;;;4.50;2.00;;;;;;;;;;5036851;28;20470;-70
2021/04/28 04:50:59;;;;;;;5.10;2.30;;;;;;;;;;5036849;28;20461;-71
2021/04/28 04:53:27;;;;;;;7.63;2.80;;;;;;;;;;5038105;28;20563;-70
2021/04/28 04:55:54;;;;;;;7.00;3.50;;;;;;;;;;5036442;28;20462;-71
2021/04/28 04:58:27;;;;;;;6.40;3.00;;;;;;;;;;5037060;28;20462;-71
2021/04/28 05:00:54;;;;;;;5.80;2.73;;;;;;;;;;5035833;28;20565;-71
2021/04/28 05:03:23;;;;;;;7.87;2.67;;;;;;;;;;5035653;28;20744;-70
2021/04/28 05:05:50;;;;;;;7.97;3.00;;;;;;;;;;5035171;28;20489;-70
2021/04/28 05:08:20;;;;;;;4.73;2.23;;;;;;;;;;5035830;28;20564;-72
2021/04/28 05:10:48;;;;;;;7.27;2.60;;;;;;;;;;5035724;28;20798;-70
2021/04/28 05:13:16;;;;;;;8.50;3.67;;;;;;;;;;5034796;28;20522;-70
2021/04/28 05:15:43;;;;;;;8.00;3.57;;;;;;;;;;5034483;28;20863;-70
2021/04/28 05:18:11;;;;;;;8.00;2.70;;;;;;;;;;5035371;28;20519;-69
2021/04/28 05:20:39;;;;;;;7.90;3.10;;;;;;;;;;5034568;28;20458;-71
2021/04/28 05:23:12;;;;;;;6.63;2.80;;;;;;;;;;5035000;28;20527;-70
2021/04/28 05:25:40;;;;;;;6.20;2.53;;;;;;;;;;5034881;28;20498;-70
2021/04/28 05:28:07;;;;;;;5.47;3.03;;;;;;;;;;5033696;28;20461;-70
2021/04/28 05:30:35;;;;;;;5.10;2.40;;;;;;;;;;5034828;28;20531;-69
2021/04/28 05:33:03;;;;;;;8.50;4.20;;;;;;;;;;5034601;28;20733;-70
2021/04/28 05:35:31;;;;;;;6.87;3.13;;;;;;;;;;5030498;28;20474;-70
2021/04/28 05:37:59;;;;;;;9.50;3.00;;;;;;;;;;5020030;28;20538;-71
2021/04/28 05:40:27;;;;;;;7.43;3.07;;;;;;;;;;5022941;28;20505;-70
2021/04/28 05:42:54;;;;;;;13.67;4.30;;;;;;;;;;5034546;28;20459;-70
2021/04/28 05:45:23;;;;;;;7.07;3.67;;;;;;;;;;5034106;28;20502;-69
2021/04/28 05:47:58;;;;;;;7.67;4.50;;;;;;;;;;5014797;28;20444;-72
2021/04/28 05:50:26;;;;;;;7.23;3.83;;;;;;;;;;5034200;28;20454;-70
2021/04/28 05:52:53;;;;;;;9.07;5.47;;;;;;;;;;5034783;28;20475;-70
2021/04/28 05:55:23;;;;;;;13.77;4.43;;;;;;;;;;5033756;28;20462;-70
2021/04/28 05:57:51;;;;;;;8.23;4.07;;;;;;;;;;5033500;28;20451;-70
2021/04/28 06:00:19;;;;;;;7.63;3.37;;;;;;;;;;5034951;28;20469;-70
2021/04/28 06:02:47;;;;;;;8.80;3.67;;;;;;;;;;5038052;28;20450;-69
2021/04/28 06:05:14;;;;;;;6.70;4.40;;;;;;;;;;5037826;28;20494;-71
2021/04/28 06:07:42;;;;;;;12.13;4.20;;;;;;;;;;5041441;28;20462;-70
2021/04/28 06:10:10;;;;;;;9.27;4.90;;;;;;;;;;5041751;28;20466;-71
2021/04/28 06:12:40;;;;;;;7.97;4.27;;;;;;;;;;5039260;28;20467;-70
2021/04/28 06:15:25;;;;;;;7.33;4.73;;;;;;;;;;5038570;28;20477;-70
2021/04/28 06:17:54;;;;;;;9.20;4.57;;;;;;;;;;5038940;28;20454;-71
2021/04/28 06:20:24;;;;;;;7.70;4.47;;;;;;;;;;5039463;28;20473;-70
2021/04/28 06:22:52;;;;;;;7.23;4.23;;;;;;;;;;5038320;28;20981;-71
2021/04/28 06:25:20;;;;;;;5.50;3.80;;;;;;;;;;5040053;28;20512;-71
2021/04/28 06:27:50;;;;;;;7.80;3.97;;;;;;;;;;5038607;28;20481;-71
2021/04/28 06:30:24;;;;;;;8.10;3.70;;;;;;;;;;5035995;28;20473;-71
2021/04/28 06:32:54;;;;;;;6.37;3.70;;;;;;;;;;5036238;28;20477;-70
2021/04/28 06:35:27;;;;;;;9.67;4.07;;;;;;;;;;5037850;28;20462;-71
2021/04/28 06:37:57;;;;;;;6.70;4.03;;;;;;;;;;5037454;28;20464;-71
2021/04/28 06:40:25;;;;;;;10.50;4.30;;;;;;;;;;5038156;28;20458;-71
2021/04/28 06:42:53;;;;;;;6.97;3.80;;;;;;;;;;5038928;28;20491;-71
2021/04/28 06:45:21;;;;;;;8.80;4.27;;;;;;;;;;5037812;28;20497;-70
2021/04/28 06:47:49;;;;;;;6.50;3.60;;;;;;;;;;5038084;28;20467;-70
2021/04/28 06:50:17;;;;;;;8.23;3.80;;;;;;;;;;5037635;28;20611;-71
2021/04/28 06:52:44;;;;;;;10.77;4.80;;;;;;;;;;5037132;28;20545;-70
2021/04/28 06:55:12;;;;;;;9.67;4.00;;;;;;;;;;5037064;28;20535;-71
2021/04/28 06:57:40;;;;;;;6.30;3.60;;;;;;;;;;5036637;28;20778;-71
2021/04/28 07:00:13;;;;;;;6.00;4.20;;;;;;;;;;5037364;28;20855;-71
2021/04/28 07:02:42;;;;;;;10.83;5.13;;;;;;;;;;5035082;28;20486;-71
2021/04/28 07:05:13;;;;;;;6.83;3.70;;;;;;;;;;5019960;28;20495;-70
2021/04/28 07:07:41;;;;;;;7.93;3.83;;;;;;;;;;5036615;28;20466;-71
2021/04/28 07:10:13;;;;;;;6.03;3.93;;;;;;;;;;5036565;28;20490;-72
2021/04/28 07:12:43;;;;;;;9.83;5.13;;;;;;;;;;5036223;28;20501;-69
2021/04/28 07:15:15;;;;;;;5.97;3.73;;;;;;;;;;5037273;28;20470;-71
2021/04/28 07:17:45;;;;;;;6.70;3.93;;;;;;;;;;5029902;28;20459;-71
2021/04/28 07:20:20;;;;;;;6.27;4.03;;;;;;;;;;5018763;28;20922;-71
2021/04/28 07:22:48;;;;;;;11.47;4.50;;;;;;;;;;5018040;28;20455;-70
2021/04/28 07:25:19;;;;;;;7.47;4.37;;;;;;;;;;5025715;28;20945;-71
2021/04/28 07:27:50;;;;;;;8.33;3.63;;;;;;;;;;5037967;28;20504;-72
2021/04/28 07:30:19;;;;;;;7.87;4.60;;;;;;;;;;5037782;28;20459;-72
2021/04/28 07:32:47;;;;;;;11.73;4.23;;;;;;;;;;5037321;28;20501;-71
2021/04/28 07:35:25;;;;;;;7.90;4.10;;;;;;;;;;5037146;28;20887;-73
2021/04/28 07:37:53;;;;;;;8.03;4.40;;;;;;;;;;5037104;28;20549;-70
2021/04/28 07:40:26;;;;;;;7.97;4.50;;;;;;;;;;5036771;28;20478;-70
2021/04/28 07:42:54;;;;;;;6.73;4.10;;;;;;;;;;5036827;28;20454;-70
2021/04/28 07:45:24;;;;;;;9.43;5.10;;;;;;;;;;5035918;28;20571;-71
2021/04/28 07:48:01;;;;;;;6.57;4.17;;;;;;;;;;5034779;28;20454;-70
2021/04/28 07:50:29;;;;;;;10.53;4.80;;;;;;;;;;5035990;28;20454;-70
2021/04/28 07:52:58;;;;;;;9.10;5.17;;;;;;;;;;5036738;28;20925;-72
2021/04/28 07:55:29;;;;;;;10.53;7.00;;;;;;;;;;5037026;28;20477;-70
2021/04/28 07:57:57;;;;;;;7.83;4.73;;;;;;;;;;5036736;28;20993;-71
2021/04/28 08:00:27;;;;;;;11.03;5.10;;;;;;;;;;5036486;28;20466;-70
2021/04/28 08:02:55;;;;;;;13.70;4.40;;;;;;;;;;5033261;28;21030;-70
2021/04/28 08:05:23;;;;;;;8.20;4.83;;;;;;;;;;5037564;28;20709;-72
2021/04/28 08:07:52;;;;;;;6.77;4.00;;;;;;;;;;5026024;28;20905;-70
2021/04/28 08:10:19;;;;;;;7.63;4.90;;;;;;;;;;5036006;28;20878;-69
2021/04/28 08:12:47;;;;;;;11.37;5.40;;;;;;;;;;5036144;28;20510;-69
2021/04/28 08:15:19;;;;;;;10.80;5.00;;;;;;;;;;5034460;28;20524;-71
2021/04/28 08:17:50;;;;;;;7.13;4.17;;;;;;;;;;5015322;28;20738;-70
2021/04/28 08:20:18;;;;;;;10.20;4.97;;;;;;;;;;5024351;28;20470;-70
2021/04/28 08:22:46;;;;;;;10.60;5.37;;;;;;;;;;5035907;28;20459;-69
2021/04/28 08:25:15;;;;;;;9.10;4.63;;;;;;;;;;5036482;28;20898;-71
2021/04/28 08:27:42;;;;;;;9.70;5.40;;;;;;;;;;5036331;28;20716;-70
2021/04/28 08:30:12;;;;;;;6.83;4.40;;;;;;;;;;5034522;28;20458;-71
2021/04/28 08:32:49;;;;;;;10.43;5.20;;;;;;;;;;5037006;28;20481;-72
2021/04/28 08:35:20;;;;;;;8.47;5.50;;;;;;;;;;5035742;28;20470;-70
2021/04/28 08:37:53;;;;;;;8.17;4.73;;;;;;;;;;5034856;28;20754;-71
2021/04/28 08:40:22;;;;;;;8.60;5.27;;;;;;;;;;5034460;28;20478;-70
2021/04/28 08:42:55;;;;;;;8.70;4.83;;;;;;;;;;5035226;28;20722;-71
2021/04/28 08:45:30;;;;;;;7.50;4.60;;;;;;;;;;5035204;28;20483;-70
2021/04/28 08:48:12;;;;;;;7.93;5.13;;;;;;;;;;5035346;28;20463;-72
2021/04/28 08:50:41;;;;;;;7.87;5.40;;;;;;;;;;5015574;28;20448;-69
2021/04/28 08:53:13;;;;;;;7.23;4.80;;;;;;;;;;5035384;28;20537;-71
2021/04/28 08:55:45;;;;;;;7.20;5.10;;;;;;;;;;5036023;28;20875;-71
2021/04/28 08:58:35;;;;;;;9.10;5.30;;;;;;;;;;5035800;28;21050;-72
2021/04/28 09:01:02;;;;;;;7.73;4.60;;;;;;;;;;5035052;28;20451;-70
2021/04/28 09:03:43;;;;;;;8.53;5.57;;;;;;;;;;5034833;28;20473;-70
2021/04/28 09:06:55;;;;;;;10.20;5.10;;;;;;;;;;5036479;28;20581;-73
2021/04/28 09:09:26;;;;;;;8.70;4.87;;;;;;;;;;5035293;28;20498;-71
2021/04/28 09:11:58;;;;;;;10.00;6.07;;;;;;;;;;5035394;28;20542;-71
2021/04/28 09:14:32;;;;;;;9.63;6.10;;;;;;;;;;5035385;28;20466;-71
2021/04/28 09:17:01;;;;;;;9.33;5.97;;;;;;;;;;5035171;28;20450;-71
2021/04/28 09:19:42;;;;;;;7.40;5.37;;;;;;;;;;5035268;28;20471;-71
2021/04/28 09:22:15;;;;;;;8.90;5.67;;;;;;;;;;5034946;28;20517;-70
2021/04/28 09:24:47;;;;;;;7.17;4.57;;;;;;;;;;5036052;28;20504;-70
2021/04/28 09:27:33;;;;;;;9.10;5.80;;;;;;;;;;5034797;28;20470;-70
2021/04/28 09:30:14;;;;;;;13.07;6.30;;;;;;;;;;5035315;28;20470;-71
2021/04/28 09:32:49;;;;;;;8.93;4.87;;;;;;;;;;5034824;28;20459;-72
2021/04/28 09:35:22;;;;;;;10.83;6.10;;;;;;;;;;5034494;28;20478;-71
2021/04/28 09:37:53;;;;;;;9.00;5.90;;;;;;;;;;5037654;28;20470;-70
2021/04/28 09:40:39;;;;;;;9.77;5.50;;;;;;;;;;5038262;28;20870;-70
2021/04/28 09:43:07;;;;;;;9.50;5.67;;;;;;;;;;5037781;28;20482;-69
2021/04/28 09:45:47;;;;;;;8.37;5.70;;;;;;;;;;5040194;28;20522;-71
2021/04/28 09:48:21;;;;;;;9.60;5.50;;;;;;;;;;5040057;28;20459;-70
2021/04/28 09:50:49;;;;;;;10.67;5.40;;;;;;;;;;5040157;28;20465;-70
2021/04/28 09:53:32;;;;;;;9.70;5.40;;;;;;;;;;5039453;28;20455;-70
2021/04/28 09:56:04;;;;;;;7.90;5.37;;;;;;;;;;5038844;28;20520;-71
2021/04/28 09:58:50;;;;;;;8.37;5.90;;;;;;;;;;5037837;28;20469;-70
2021/04/28 10:01:18;;;;;;;10.00;6.50;;;;;;;;;;5038451;28;20469;-72
2021/04/28 10:03:49;;;;;;;8.77;5.90;;;;;;;;;;5038487;28;20465;-71
2021/04/28 10:06:37;;;;;;;8.20;5.10;;;;;;;;;;5038558;28;20581;-72
2021/04/28 10:09:08;;;;;;;8.87;5.70;;;;;;;;;;5038975;28;20459;-72
2021/04/28 10:11:35;;;;;;;8.60;5.30;;;;;;;;;;5039758;28;20632;-70
2021/04/28 10:14:03;;;;;;;13.03;6.20;;;;;;;;;;5039833;28;20455;-71
2021/04/28 10:16:32;;;;;;;10.60;6.73;;;;;;;;;;5039222;28;21130;-70
2021/04/28 10:19:02;;;;;;;10.67;7.00;;;;;;;;;;5038626;28;20453;-71
2021/04/28 10:21:36;;;;;;;10.80;6.13;;;;;;;;;;5038497;28;20557;-71
2021/04/28 10:24:08;;;;;;;8.80;6.20;;;;;;;;;;5037696;28;20589;-72
2021/04/28 10:26:38;;;;;;;12.57;6.20;;;;;;;;;;5038052;28;20566;-71
2021/04/28 10:32:07;;;;;;;10.83;6.40;;;;;;;;;;5037029;28;20795;-72
2021/04/28 10:34:37;;;;;;;8.77;5.90;;;;;;;;;;5038500;28;20568;-72
2021/04/28 10:37:23;;;;;;;15.60;6.60;;;;;;;;;;5038412;28;20738;-71
2021/04/28 10:39:52;;;;;;;9.70;6.00;;;;;;;;;;5038272;28;20752;-71
2021/04/28 10:42:26;;;;;;;10.70;6.27;;;;;;;;;;5037990;28;20534;-71
2021/04/28 10:45:00;;;;;;;11.83;5.57;;;;;;;;;;5037678;28;20608;-71
2021/04/28 10:47:33;;;;;;;8.67;6.17;;;;;;;;;;5037587;28;20510;-71
2021/04/28 10:50:01;;;;;;;8.13;5.70;;;;;;;;;;5038304;28;20450;-71
2021/04/28 10:52:29;;;;;;;8.30;6.10;;;;;;;;;;5036912;28;20867;-70
2021/04/28 10:55:05;;;;;;;9.03;6.23;;;;;;;;;;5037590;28;20463;-71
2021/04/28 10:57:41;;;;;;;10.90;6.83;;;;;;;;;;5037305;28;20454;-70
2021/04/28 11:00:27;;;;;;;9.70;6.10;;;;;;;;;;5037918;28;20458;-70
2021/04/28 11:02:55;;;;;;;8.47;5.30;;;;;;;;;;5017177;28;20515;-71
2021/04/28 11:05:25;;;;;;;9.73;6.73;;;;;;;;;;5018719;28;20487;-71
2021/04/28 11:07:59;;;;;;;12.10;6.67;;;;;;;;;;5031395;28;20462;-71
2021/04/28 11:10:34;;;;;;;8.00;6.00;;;;;;;;;;5038790;28;20957;-71
2021/04/28 11:13:06;;;;;;;10.27;6.27;;;;;;;;;;5036415;28;20558;-72
2021/04/28 11:15:51;;;;;;;10.27;6.47;;;;;;;;;;5037605;28;20465;-70
2021/04/28 11:18:29;;;;;;;13.03;6.27;;;;;;;;;;5037241;28;20590;-72
2021/04/28 11:21:15;;;;;;;12.77;7.30;;;;;;;;;;5035700;28;20571;-71
2021/04/28 11:23:57;;;;;;;9.40;7.47;;;;;;;;;;5037098;28;20459;-71
2021/04/28 11:26:29;;;;;;;12.07;6.67;;;;;;;;;;5017591;28;20864;-72
2021/04/28 11:28:56;;;;;;;13.50;6.80;;;;;;;;;;5032384;28;20917;-70
2021/04/28 11:31:24;;;;;;;9.60;7.10;;;;;;;;;;5016989;28;20979;-71
2021/04/28 11:33:58;;;;;;;11.23;6.30;;;;;;;;;;5036348;28;20549;-69
2021/04/28 11:36:27;;;;;;;9.90;5.57;;;;;;;;;;5036626;28;20467;-70
2021/04/28 11:38:56;;;;;;;10.20;9.10;;;;;;;;;;5036450;28;20746;-71
2021/04/28 11:41:27;;;;;;;11.40;7.30;;;;;;;;;;5028768;28;20463;-72
2021/04/28 11:43:58;;;;;;;12.07;7.67;;;;;;;;;;5018322;28;20562;-70
2021/04/28 11:46:29;;;;;;;10.20;6.60;;;;;;;;;;5019043;28;20577;-70
2021/04/28 11:49:00;;;;;;;10.03;6.20;;;;;;;;;;5028198;28;20465;-71
2021/04/28 11:51:35;;;;;;;10.77;6.73;;;;;;;;;;5036762;28;21088;-70
2021/04/28 11:54:03;;;;;;;12.20;7.57;;;;;;;;;;5037248;28;20454;-70
2021/04/28 11:56:32;;;;;;;9.80;6.63;;;;;;;;;;5035844;28;20471;-70
2021/04/28 11:59:03;;;;;;;10.40;6.40;;;;;;;;;;5035417;28;20742;-70
2021/04/28 12:01:31;;;;;;;10.90;6.90;;;;;;;;;;5036011;28;20532;-70
2021/04/28 12:04:00;;;;;;;9.33;6.80;;;;;;;;;;5035224;28;20459;-70
2021/04/28 12:06:32;;;;;;;17.00;8.13;;;;;;;;;;5032210;28;20487;-70
2021/04/28 12:09:04;;;;;;;9.80;6.70;;;;;;;;;;5028183;28;20460;-70
2021/04/28 12:11:31;;;;;;;12.37;8.43;;;;;;;;;;5025107;28;20477;-71
2021/04/28 12:13:59;;;;;;;10.90;7.27;;;;;;;;;;5035956;28;20466;-70
2021/04/28 12:16:29;;;;;;;14.23;8.17;;;;;;;;;;5024178;28;20964;-70
2021/04/28 12:19:07;;;;;;;8.93;6.17;;;;;;;;;;5016296;28;21110;-70
2021/04/28 12:21:34;;;;;;;12.93;8.03;;;;;;;;;;5035559;28;20706;-69
2021/04/28 12:24:01;;;;;;;9.63;7.47;;;;;;;;;;5017072;28;20475;-70
2021/04/28 12:26:29;;;;;;;11.47;7.47;;;;;;;;;;5037728;28;20521;-69
2021/04/28 12:28:57;;;;;;;11.17;7.63;;;;;;;;;;5037681;28;20550;-70
2021/04/28 12:31:42;;;;;;;11.90;7.03;;;;;;;;;;5032733;28;20889;-71
2021/04/28 12:34:16;;;;;;;12.70;7.30;;;;;;;;;;5035582;28;20835;-69
2021/04/28 12:36:44;;;;;;;12.50;6.83;;;;;;;;;;5037447;28;20470;-70
2021/04/28 12:39:11;;;;;;;10.30;6.70;;;;;;;;;;5037056;28;20450;-70
2021/04/28 12:41:42;;;;;;;11.33;6.60;;;;;;;;;;5036844;28;20462;-70
2021/04/28 12:44:10;;;;;;;11.93;7.00;;;;;;;;;;5037486;28;20476;-74
2021/04/28 12:46:37;;;;;;;16.40;7.70;;;;;;;;;;5036822;28;20940;-71
2021/04/28 12:49:08;;;;;;;10.87;7.47;;;;;;;;;;5035875;28;20466;-72
2021/04/28 12:51:44;;;;;;;12.50;7.43;;;;;;;;;;5016734;28;20466;-72
2021/04/28 12:54:22;;;;;;;9.97;7.17;;;;;;;;;;5016566;28;20521;-72
2021/04/28 12:56:49;;;;;;;18.90;7.67;;;;;;;;;;5016398;28;20617;-71
2021/04/28 12:59:18;;;;;;;10.20;6.97;;;;;;;;;;5016065;28;21024;-71
2021/04/28 13:01:56;;;;;;;12.97;7.50;;;;;;;;;;5016275;28;20876;-71
2021/04/28 13:04:24;;;;;;;10.53;6.70;;;;;;;;;;5016809;28;20521;-70
2021/04/28 13:07:06;;;;;;;12.20;7.07;;;;;;;;;;5018693;28;20506;-72
2021/04/28 13:09:34;;;;;;;11.23;7.00;;;;;;;;;;5034615;28;20858;-72
2021/04/28 13:12:02;;;;;;;18.23;8.67;;;;;;;;;;5036234;28;20528;-71
2021/04/28 13:14:44;;;;;;;24.93;7.90;;;;;;;;;;5034054;28;20521;-71
2021/04/28 13:17:12;;;;;;;12.67;7.27;;;;;;;;;;5034760;28;20462;-71
2021/04/28 13:19:40;;;;;;;11.23;6.93;;;;;;;;;;5033486;28;20460;-71
2021/04/28 13:22:09;;;;;;;12.10;7.53;;;;;;;;;;5034702;28;20465;-71
2021/04/28 13:24:37;;;;;;;14.67;8.13;;;;;;;;;;5035733;28;20459;-70
2021/04/28 13:27:07;;;;;;;15.00;9.23;;;;;;;;;;5036002;28;20466;-71
2021/04/28 13:30:00;;;;;;;12.77;7.20;;;;;;;;;;5030875;28;20735;-72
2021/04/28 13:32:38;;;;;;;15.60;8.57;;;;;;;;;;5035256;28;20830;-71
2021/04/28 13:35:18;;;;;;;15.03;7.67;;;;;;;;;;5035812;28;20526;-71
2021/04/28 13:37:46;;;;;;;11.23;7.63;;;;;;;;;;5035564;28;20477;-71
2021/04/28 13:40:22;;;;;;;14.37;7.80;;;;;;;;;;5035130;28;20458;-71
2021/04/28 13:42:50;;;;;;;12.60;7.30;;;;;;;;;;5032351;28;20895;-72
2021/04/28 13:45:18;;;;;;;14.10;7.83;;;;;;;;;;5014359;28;20927;-71
2021/04/28 13:47:49;;;;;;;13.13;8.13;;;;;;;;;;5014604;28;20459;-71
2021/04/28 13:50:16;;;;;;;14.17;8.67;;;;;;;;;;5014578;28;20526;-71
2021/04/28 13:52:47;;;;;;;10.73;7.60;;;;;;;;;;5015306;28;20744;-71
2021/04/28 13:55:16;;;;;;;11.30;7.77;;;;;;;;;;5031742;28;20466;-71
2021/04/28 13:57:47;;;;;;;14.03;7.00;;;;;;;;;;5034603;28;20510;-71
2021/04/28 14:00:16;;;;;;;13.10;8.07;;;;;;;;;;5028924;28;20973;-70
2021/04/28 14:02:46;;;;;;;11.23;8.03;;;;;;;;;;5016912;28;20475;-71
2021/04/28 14:05:14;;;;;;;11.73;8.30;;;;;;;;;;5016133;28;20523;-71
2021/04/28 14:07:42;;;;;;;12.40;7.53;;;;;;;;;;5014883;28;20811;-71
2021/04/28 14:10:11;;;;;;;10.90;8.07;;;;;;;;;;5015462;28;20475;-71
2021/04/28 14:12:42;;;;;;;12.63;8.23;;;;;;;;;;5019000;28;20451;-71
2021/04/28 14:15:13;;;;;;;11.40;7.67;;;;;;;;;;5033948;28;20477;-71
2021/04/28 14:17:41;;;;;;;13.60;7.60;;;;;;;;;;5033788;28;20455;-70
2021/04/28 14:20:10;;;;;;;13.27;7.30;;;;;;;;;;5034881;28;20621;-71
2021/04/28 14:22:38;;;;;;;13.60;7.80;;;;;;;;;;5037685;28;20481;-71
2021/04/28 14:25:06;;;;;;;10.90;7.27;;;;;;;;;;5036567;28;20486;-71
2021/04/28 14:27:35;;;;;;;13.53;9.50;;;;;;;;;;5037552;28;20467;-71
2021/04/28 14:30:10;;;;;;;9.33;6.97;;;;;;;;;;5038296;28;20490;-71
2021/04/28 14:32:43;;;;;;;12.87;7.03;;;;;;;;;;5038854;28;20726;-72
2021/04/28 14:35:12;;;;;;;16.27;7.80;;;;;;;;;;5038880;28;20549;-72
2021/04/28 14:37:39;;;;;;;14.13;7.93;;;;;;;;;;5039279;28;20450;-72
2021/04/28 14:40:14;;;;;;;11.83;7.33;;;;;;;;;;5037177;28;20531;-72
2021/04/28 14:42:46;;;;;;;10.80;7.20;;;;;;;;;;5039514;28;20476;-72
2021/04/28 14:45:18;;;;;;;10.93;6.03;;;;;;;;;;5039158;28;20512;-71
2021/04/28 14:47:46;;;;;;;11.07;7.37;;;;;;;;;;5039179;28;20473;-71
2021/04/28 14:50:14;;;;;;;11.83;7.13;;;;;;;;;;5038758;28;20455;-71
2021/04/28 14:52:42;;;;;;;13.00;8.10;;;;;;;;;;5039368;28;20619;-72
2021/04/28 14:55:20;;;;;;;10.83;7.00;;;;;;;;;;5040276;28;20453;-74
2021/04/28 14:57:49;;;;;;;14.13;7.50;;;;;;;;;;5038447;28;20474;-71
2021/04/28 15:00:19;;;;;;;11.80;7.40;;;;;;;;;;5038026;28;20465;-70
2021/04/28 15:02:50;;;;;;;10.63;6.57;;;;;;;;;;5040416;28;20763;-70
2021/04/28 15:05:23;;;;;;;8.50;6.60;;;;;;;;;;5038049;28;20505;-72